createdAt,value
2018-09-23T00:00:47.356Z,19.50
2018-09-23T00:03:16.162Z,19.50
2018-09-23T00:05:44.949Z,19.40
2018-09-23T00:08:14.439Z,19.40
2018-09-23T00:10:43.712Z,19.40
2018-09-23T00:13:12.937Z,19.50
2018-09-23T00:15:45.330Z,19.40
2018-09-23T00:18:14.394Z,19.50
2018-09-23T00:20:43.531Z,19.50
2018-09-23T00:23:16.607Z,19.30
2018-09-23T00:25:46.260Z,19.40
2018-09-23T00:28:15.365Z,19.40
2018-09-23T00:30:44.984Z,19.40
2018-09-23T00:33:14.111Z,19.40
2018-09-23T00:35:43.105Z,19.50
2018-09-23T00:38:12.901Z,19.50
2018-09-23T00:40:41.862Z,19.50
2018-09-23T00:45:39.723Z,19.50
2018-09-23T00:48:09.209Z,19.60
2018-09-23T00:50:38.417Z,19.60
2018-09-23T00:53:09.575Z,19.60
2018-09-23T00:55:38.582Z,19.50
2018-09-23T00:58:07.998Z,19.40
2018-09-23T01:00:37.038Z,19.40
2018-09-23T01:03:07.135Z,19.30
2018-09-23T01:05:36.274Z,19.30
2018-09-23T01:10:34.080Z,19.00
2018-09-23T01:13:03.191Z,19.00
2018-09-23T01:15:33.146Z,19.00
2018-09-23T01:18:02.251Z,18.90
2018-09-23T01:20:31.342Z,19.00
2018-09-23T01:23:01.469Z,18.90
2018-09-23T01:25:30.498Z,18.90
2018-09-23T01:27:59.713Z,18.90
2018-09-23T01:30:30.649Z,19.00
2018-09-23T01:32:59.877Z,19.00
2018-09-23T01:35:28.999Z,19.00
2018-09-23T01:37:59.192Z,19.00
2018-09-23T01:40:28.313Z,19.00
2018-09-23T01:42:57.558Z,19.00
2018-09-23T01:45:28.320Z,19.10
2018-09-23T01:47:57.446Z,18.90
2018-09-23T01:50:26.428Z,19.00
2018-09-23T01:52:55.676Z,18.90
2018-09-23T01:55:24.926Z,18.90
2018-09-23T02:00:24.178Z,18.80
2018-09-23T02:02:53.198Z,18.70
2018-09-23T02:05:22.336Z,18.70
2018-09-23T02:07:51.544Z,18.80
2018-09-23T02:10:20.774Z,18.70
2018-09-23T02:12:50.418Z,18.60
2018-09-23T02:15:19.500Z,18.60
2018-09-23T02:17:48.518Z,18.60
2018-09-23T02:20:19.142Z,18.50
2018-09-23T02:22:48.280Z,18.50
2018-09-23T02:25:17.465Z,18.50
2018-09-23T02:27:47.544Z,18.50
2018-09-23T02:30:17.580Z,18.50
2018-09-23T02:32:46.830Z,18.30
2018-09-23T02:35:19.572Z,18.30
2018-09-23T02:37:48.782Z,18.20
2018-09-23T02:40:17.903Z,18.00
2018-09-23T02:42:47.268Z,18.10
2018-09-23T02:45:16.094Z,18.10
2018-09-23T02:47:45.238Z,18.10
2018-09-23T02:50:14.376Z,18.10
2018-09-23T02:52:43.403Z,18.20
2018-09-23T02:55:12.475Z,18.20
2018-09-23T02:57:42.381Z,18.20
2018-09-23T03:00:11.735Z,18.30
2018-09-23T03:02:40.844Z,18.30
2018-09-23T03:05:09.883Z,18.30
2018-09-23T03:07:38.973Z,18.30
2018-09-23T03:10:08.078Z,18.30
2018-09-23T03:12:39.234Z,18.40
2018-09-23T03:15:08.347Z,18.40
2018-09-23T03:17:37.579Z,18.40
2018-09-23T03:20:06.697Z,18.30
2018-09-23T03:22:35.691Z,18.30
2018-09-23T03:25:05.106Z,18.10
2018-09-23T03:27:34.362Z,18.10
2018-09-23T03:30:03.542Z,18.00
2018-09-23T03:32:32.659Z,17.80
2018-09-23T03:35:04.383Z,17.70
2018-09-23T03:37:33.550Z,17.60
2018-09-23T03:40:02.630Z,17.60
2018-09-23T03:42:32.192Z,17.60
2018-09-23T03:45:01.393Z,17.50
2018-09-23T03:47:30.392Z,17.50
2018-09-23T03:50:00.153Z,17.50
2018-09-23T03:52:29.227Z,17.40
2018-09-23T03:54:58.453Z,17.40
2018-09-23T03:57:30.834Z,17.40
2018-09-23T04:00:00.409Z,17.40
2018-09-23T04:02:30.210Z,17.40
2018-09-23T04:07:30.799Z,17.40
2018-09-23T04:09:59.787Z,17.30
2018-09-23T04:14:57.109Z,17.20
2018-09-23T04:17:27.530Z,17.20
2018-09-23T04:19:56.853Z,17.20
2018-09-23T04:22:26.586Z,17.20
2018-09-23T04:24:56.661Z,17.20
2018-09-23T04:27:25.613Z,17.20
2018-09-23T04:29:54.824Z,17.30
2018-09-23T04:32:23.872Z,17.40
2018-09-23T04:34:52.959Z,17.30
2018-09-23T04:37:22.178Z,17.40
2018-09-23T04:39:52.737Z,17.40
2018-09-23T04:42:21.947Z,17.40
2018-09-23T04:44:50.785Z,17.60
2018-09-23T04:47:20.891Z,17.60
2018-09-23T04:49:50.002Z,17.70
2018-09-23T04:52:19.097Z,17.70
2018-09-23T04:57:17.455Z,18.00
2018-09-23T04:59:46.567Z,18.10
2018-09-23T05:02:17.252Z,18.20
2018-09-23T05:04:46.404Z,18.20
2018-09-23T05:07:15.503Z,18.40
2018-09-23T05:09:45.563Z,18.40
2018-09-23T05:12:14.604Z,18.50
2018-09-23T05:14:43.566Z,18.50
2018-09-23T05:17:13.074Z,18.60
2018-09-23T05:19:42.197Z,18.60
2018-09-23T05:22:11.598Z,18.70
2018-09-23T05:24:43.126Z,18.90
2018-09-23T05:27:12.243Z,18.90
2018-09-23T05:29:41.424Z,19.10
2018-09-23T05:32:11.302Z,19.10
2018-09-23T05:34:40.472Z,19.20
2018-09-23T05:42:07.898Z,19.50
2018-09-23T05:44:37.029Z,19.60
2018-09-23T05:47:08.074Z,19.60
2018-09-23T05:49:37.215Z,19.90
2018-09-23T05:52:06.600Z,20.00
2018-09-23T05:54:36.714Z,20.00
2018-09-23T05:57:05.953Z,20.50
2018-09-23T05:59:35.049Z,21.10
2018-09-23T06:02:04.046Z,21.80
2018-09-23T06:04:33.130Z,21.80
2018-09-23T06:07:02.188Z,23.00
2018-09-23T06:09:31.696Z,23.70
2018-09-23T06:12:01.041Z,24.50
2018-09-23T06:14:30.058Z,24.50
2018-09-23T06:16:59.170Z,26.00
2018-09-23T06:19:28.187Z,26.10
2018-09-23T06:22:00.132Z,26.90
2018-09-23T06:24:29.290Z,27.60
2018-09-23T06:26:58.977Z,28.40
2018-09-23T06:29:28.721Z,30.00
2018-09-23T06:31:57.951Z,30.00
2018-09-23T06:34:27.793Z,30.80
2018-09-23T06:36:57.309Z,32.30
2018-09-23T06:39:27.022Z,33.00
2018-09-23T06:41:56.138Z,33.70
2018-09-23T06:44:25.273Z,34.50
2018-09-23T06:46:55.542Z,35.20
2018-09-23T06:49:26.807Z,35.20
2018-09-23T06:51:55.971Z,36.00
2018-09-23T06:54:25.047Z,36.70
2018-09-23T06:59:23.004Z,38.40
2018-09-23T07:01:52.106Z,39.00
2018-09-23T07:04:21.364Z,39.50
2018-09-23T07:06:50.442Z,39.50
2018-09-23T07:09:19.657Z,40.00
2018-09-23T07:11:49.190Z,39.80
2018-09-23T07:14:18.504Z,40.00
2018-09-23T07:16:47.615Z,40.70
2018-09-23T07:19:16.623Z,40.70
2018-09-23T07:21:45.696Z,41.50
2018-09-23T07:24:14.814Z,42.00
2018-09-23T07:26:43.853Z,42.00
2018-09-23T07:29:12.869Z,42.20
2018-09-23T07:31:41.893Z,42.50
2018-09-23T07:34:10.751Z,42.90
2018-09-23T07:36:39.583Z,43.40
2018-09-23T07:39:09.400Z,43.70
2018-09-23T07:41:38.235Z,43.70
2018-09-23T07:44:07.385Z,43.70
2018-09-23T07:46:36.927Z,44.00
2018-09-23T07:49:05.966Z,44.50
2018-09-23T07:51:34.978Z,45.00
2018-09-23T07:54:04.519Z,45.40
2018-09-23T07:56:33.652Z,45.80
2018-09-23T07:59:02.745Z,45.80
2018-09-23T08:01:32.197Z,46.30
2018-09-23T08:04:01.202Z,46.40
2018-09-23T08:06:30.274Z,47.10
2018-09-23T08:08:59.535Z,47.30
2018-09-23T08:11:28.527Z,47.20
2018-09-23T08:13:57.918Z,47.20
2018-09-23T08:16:28.561Z,47.50
2018-09-23T08:18:57.451Z,47.70
2018-09-23T08:21:26.254Z,48.10
2018-09-23T08:23:55.720Z,48.30
2018-09-23T08:28:52.925Z,48.40
2018-09-23T08:31:21.715Z,48.60
2018-09-23T08:33:50.473Z,48.60
2018-09-23T08:36:19.252Z,49.00
2018-09-23T08:38:52.049Z,49.20
2018-09-23T08:41:20.817Z,49.20
2018-09-23T08:43:49.667Z,49.30
2018-09-23T08:48:47.592Z,49.60
2018-09-23T08:51:16.403Z,49.60
2018-09-23T08:53:45.488Z,49.30
2018-09-23T08:56:14.279Z,49.30
2018-09-23T08:58:43.073Z,49.30
2018-09-23T09:01:12.779Z,49.30
2018-09-23T09:03:41.618Z,49.50
2018-09-23T09:08:39.351Z,49.70
2018-09-23T09:13:36.540Z,50.30
2018-09-23T09:16:05.769Z,50.90
2018-09-23T09:18:34.693Z,50.90
2018-09-23T09:21:03.759Z,51.40
2018-09-23T09:23:32.587Z,51.50
2018-09-23T09:26:01.353Z,51.60
2018-09-23T09:28:30.198Z,51.80
2018-09-23T09:30:58.995Z,52.00
2018-09-23T09:33:27.797Z,51.90
2018-09-23T09:35:56.598Z,52.00
2018-09-23T09:38:25.458Z,52.00
2018-09-23T09:40:54.290Z,52.30
2018-09-23T09:43:25.015Z,52.20
2018-09-23T09:45:53.840Z,52.30
2018-09-23T09:48:22.641Z,52.30
2018-09-23T09:50:51.706Z,52.00
2018-09-23T09:53:20.637Z,52.00
2018-09-23T09:55:49.714Z,52.00
2018-09-23T09:58:19.333Z,52.00
2018-09-23T10:00:48.103Z,52.30
2018-09-23T10:03:17.022Z,52.30
2018-09-23T10:05:46.902Z,52.70
2018-09-23T10:08:15.705Z,52.80
2018-09-23T10:10:44.551Z,52.70
2018-09-23T10:13:13.716Z,52.80
2018-09-23T10:15:42.502Z,53.00
2018-09-23T10:18:11.293Z,53.00
2018-09-23T10:20:40.087Z,53.10
2018-09-23T10:23:08.946Z,53.30
2018-09-23T10:25:37.839Z,53.30
2018-09-23T10:28:06.900Z,53.30
2018-09-23T10:30:35.709Z,53.30
2018-09-23T10:33:04.587Z,52.60
2018-09-23T10:35:33.705Z,52.30
2018-09-23T10:38:02.522Z,52.40
2018-09-23T10:40:31.395Z,52.50
2018-09-23T10:43:01.863Z,52.70
2018-09-23T10:45:30.670Z,52.70
2018-09-23T10:47:59.469Z,52.80
2018-09-23T10:50:28.299Z,52.80
2018-09-23T10:52:57.093Z,52.70
2018-09-23T10:55:25.888Z,52.50
2018-09-23T10:57:55.382Z,52.60
2018-09-23T11:00:25.233Z,52.70
2018-09-23T11:02:54.422Z,52.40
2018-09-23T11:05:23.788Z,51.70
2018-09-23T11:07:52.863Z,51.40
2018-09-23T11:10:21.759Z,51.40
2018-09-23T11:12:50.895Z,51.30
2018-09-23T11:15:20.090Z,51.30
2018-09-23T11:17:49.908Z,50.40
2018-09-23T11:20:19.242Z,50.30
2018-09-23T11:22:48.346Z,49.20
2018-09-23T11:25:17.504Z,48.10
2018-09-23T11:27:46.683Z,46.90
2018-09-23T11:30:15.703Z,46.80
2018-09-23T11:32:45.049Z,43.90
2018-09-23T11:35:14.335Z,42.60
2018-09-23T11:37:43.319Z,42.60
2018-09-23T11:40:12.474Z,41.10
2018-09-23T11:45:10.682Z,39.90
2018-09-23T11:47:40.220Z,39.80
2018-09-23T11:50:09.513Z,38.40
2018-09-23T11:52:38.311Z,37.70
2018-09-23T11:55:08.128Z,37.60
2018-09-23T11:57:36.983Z,36.80
2018-09-23T12:00:06.445Z,36.50
2018-09-23T12:02:40.624Z,36.50
2018-09-23T12:05:09.437Z,36.00
2018-09-23T12:07:38.224Z,35.80
2018-09-23T12:12:36.033Z,35.40
2018-09-23T12:15:05.159Z,35.40
2018-09-23T12:17:34.627Z,35.20
2018-09-23T12:20:03.894Z,34.80
2018-09-23T12:22:33.016Z,34.80
2018-09-23T12:25:02.350Z,34.60
2018-09-23T12:30:00.026Z,34.20
2018-09-23T12:32:29.266Z,34.00
2018-09-23T12:34:58.360Z,33.90
2018-09-23T12:37:27.566Z,33.70
2018-09-23T12:40:00.410Z,33.70
2018-09-23T12:42:29.392Z,33.40
2018-09-23T12:44:58.399Z,33.40
2018-09-23T12:47:27.545Z,33.20
2018-09-23T12:52:25.226Z,33.10
2018-09-23T12:54:54.515Z,33.10
2018-09-23T12:57:23.560Z,33.10
2018-09-23T12:59:52.562Z,33.10
2018-09-23T13:04:50.703Z,32.80
2018-09-23T13:07:19.798Z,32.80
2018-09-23T13:09:49.800Z,32.60
2018-09-23T13:12:18.948Z,32.60
2018-09-23T13:14:48.064Z,32.50
2018-09-23T13:17:17.288Z,32.50
2018-09-23T13:22:15.405Z,32.30
2018-09-23T13:24:44.302Z,32.10
2018-09-23T13:27:13.414Z,32.10
2018-09-23T13:29:42.571Z,32.00
2018-09-23T13:32:11.847Z,32.00
2018-09-23T13:34:41.059Z,31.90
2018-09-23T13:39:39.906Z,31.80
2018-09-23T13:42:08.706Z,31.70
2018-09-23T13:44:38.313Z,31.70
2018-09-23T13:47:08.080Z,31.60
2018-09-23T13:49:37.368Z,31.60
2018-09-23T13:52:09.978Z,31.50
2018-09-23T13:54:39.110Z,31.50
2018-09-23T13:57:08.299Z,31.40
2018-09-23T13:59:38.691Z,31.40
2018-09-23T14:02:07.875Z,31.40
2018-09-23T14:04:36.851Z,31.40
2018-09-23T14:07:06.878Z,31.30
2018-09-23T14:09:36.006Z,31.20
2018-09-23T14:12:05.456Z,31.20
2018-09-23T14:14:34.488Z,31.20
2018-09-23T14:17:03.673Z,31.10
2018-09-23T14:19:32.695Z,31.00
2018-09-23T14:22:01.810Z,31.00
2018-09-23T14:24:30.885Z,31.00
2018-09-23T14:27:00.110Z,31.00
2018-09-23T14:29:29.246Z,31.00
2018-09-23T14:31:58.456Z,31.00
2018-09-23T14:34:27.551Z,31.00
2018-09-23T14:36:57.926Z,30.90
2018-09-23T14:39:27.011Z,30.90
2018-09-23T14:41:57.193Z,30.80
2018-09-23T14:44:29.236Z,30.80
2018-09-23T14:46:58.329Z,30.90
2018-09-23T14:49:27.351Z,30.80
2018-09-23T14:51:56.641Z,30.80
2018-09-23T14:54:25.851Z,30.80
2018-09-23T14:56:54.894Z,30.80
2018-09-23T14:59:24.802Z,30.70
2018-09-23T15:01:54.034Z,30.70
2018-09-23T15:04:23.775Z,30.60
2018-09-23T15:06:54.018Z,30.70
2018-09-23T15:09:22.829Z,30.60
2018-09-23T15:11:51.645Z,30.60
2018-09-23T15:14:20.753Z,30.50
2018-09-23T15:16:49.845Z,30.40
2018-09-23T15:19:19.067Z,30.40
2018-09-23T15:21:48.330Z,30.40
2018-09-23T15:24:17.582Z,30.30
2018-09-23T15:26:46.637Z,30.20
2018-09-23T15:29:15.828Z,30.20
2018-09-23T15:31:45.034Z,30.10
2018-09-23T15:34:14.455Z,30.00
2018-09-23T15:36:43.324Z,30.00
2018-09-23T15:39:12.176Z,29.90
2018-09-23T15:44:09.879Z,29.80
2018-09-23T15:46:39.110Z,29.60
2018-09-23T15:49:09.200Z,29.60
2018-09-23T15:51:38.451Z,29.60
2018-09-23T15:54:07.744Z,27.00
2018-09-23T15:56:38.064Z,29.40
2018-09-23T15:59:07.520Z,29.30
2018-09-23T16:01:36.539Z,29.30
2018-09-23T16:04:09.341Z,29.20
2018-09-23T16:06:38.476Z,29.10
2018-09-23T16:09:08.830Z,29.00
2018-09-23T16:11:38.126Z,29.00
2018-09-23T16:14:06.933Z,28.90
2018-09-23T16:16:35.926Z,28.80
2018-09-23T16:19:05.243Z,28.70
2018-09-23T16:21:34.355Z,28.70
2018-09-23T16:24:03.607Z,28.70
2018-09-23T16:26:36.165Z,28.50
2018-09-23T16:29:04.959Z,28.40
2018-09-23T16:31:33.738Z,28.30
2018-09-23T16:34:02.583Z,28.20
2018-09-23T16:36:31.620Z,28.20
2018-09-23T16:39:00.598Z,28.20
2018-09-23T16:41:29.866Z,28.00
2018-09-23T16:43:59.261Z,28.00
2018-09-23T16:48:57.012Z,27.70
2018-09-23T16:51:26.159Z,27.50
2018-09-23T16:53:55.381Z,27.50
2018-09-23T16:56:26.366Z,27.40
2018-09-23T16:58:55.174Z,27.20
2018-09-23T17:01:24.168Z,27.20
2018-09-23T17:03:54.953Z,27.00
2018-09-23T17:06:23.803Z,26.80
2018-09-23T17:08:52.916Z,26.70
2018-09-23T17:11:22.365Z,26.70
2018-09-23T17:13:51.562Z,26.60
2018-09-23T17:16:20.998Z,26.50
2018-09-23T17:18:50.543Z,26.40
2018-09-23T17:21:19.643Z,26.40
2018-09-23T17:23:50.066Z,26.30
2018-09-23T17:26:19.276Z,26.30
2018-09-23T17:28:48.391Z,26.20
2018-09-23T17:31:17.743Z,26.10
2018-09-23T17:33:46.922Z,26.10
2018-09-23T17:38:46.421Z,26.00
2018-09-23T17:41:16.575Z,25.80
2018-09-23T17:43:46.505Z,25.70
2018-09-23T17:46:15.655Z,25.60
2018-09-23T17:48:44.675Z,25.50
2018-09-23T17:51:14.524Z,25.50
2018-09-23T17:53:43.493Z,25.50
2018-09-23T17:56:12.627Z,25.50
2018-09-23T17:58:42.866Z,25.30
2018-09-23T18:01:11.989Z,25.20
2018-09-23T18:03:40.773Z,25.10
2018-09-23T18:06:12.079Z,25.10
2018-09-23T18:08:41.171Z,25.00
2018-09-23T18:11:10.250Z,24.90
2018-09-23T18:13:40.361Z,24.90
2018-09-23T18:16:09.519Z,24.80
2018-09-23T18:18:38.626Z,24.60
2018-09-23T18:21:09.310Z,24.50
2018-09-23T18:23:39.615Z,24.50
2018-09-23T18:26:09.344Z,24.30
2018-09-23T18:28:38.419Z,24.20
2018-09-23T18:31:07.780Z,24.10
2018-09-23T18:33:38.205Z,24.10
2018-09-23T18:36:07.435Z,24.00
2018-09-23T18:38:36.657Z,24.00
2018-09-23T18:43:34.457Z,23.90
2018-09-23T18:46:04.245Z,23.90
2018-09-23T18:48:34.620Z,23.80
2018-09-23T18:51:03.849Z,23.80
2018-09-23T18:53:33.585Z,23.80
2018-09-23T18:56:05.192Z,23.70
2018-09-23T18:58:34.260Z,23.70
2018-09-23T19:01:03.478Z,23.60
2018-09-23T19:03:32.814Z,23.60
2018-09-23T19:06:01.896Z,23.50
2018-09-23T19:08:31.013Z,23.50
2018-09-23T19:11:00.500Z,23.50
2018-09-23T19:13:34.737Z,23.40
2018-09-23T19:16:10.291Z,23.30
2018-09-23T19:18:39.550Z,23.30
2018-09-23T19:21:08.733Z,23.30
2018-09-23T19:23:38.010Z,23.10
2018-09-23T19:26:07.290Z,23.20
2018-09-23T19:28:36.397Z,23.20
2018-09-23T19:31:05.737Z,23.10
2018-09-23T19:33:34.749Z,23.10
2018-09-23T19:36:04.448Z,23.00
2018-09-23T19:38:33.535Z,22.90
2018-09-23T19:41:02.798Z,22.90
2018-09-23T19:43:32.899Z,22.90
2018-09-23T19:46:02.762Z,22.80
2018-09-23T19:48:31.870Z,22.80
2018-09-23T19:51:00.902Z,22.70
2018-09-23T19:53:30.110Z,22.70
2018-09-23T20:00:56.300Z,22.70
2018-09-23T20:03:25.413Z,22.60
2018-09-23T20:05:55.307Z,22.60
2018-09-23T20:08:24.476Z,22.60
2018-09-23T20:10:53.582Z,22.50
2018-09-23T20:13:22.871Z,22.50
2018-09-23T20:15:52.052Z,22.60
2018-09-23T20:18:21.109Z,22.60
2018-09-23T20:20:50.361Z,22.50
2018-09-23T20:23:19.428Z,22.60
2018-09-23T20:25:48.470Z,22.50
2018-09-23T20:28:18.293Z,22.60
2018-09-23T20:30:47.375Z,22.60
2018-09-23T20:33:16.503Z,22.60
2018-09-23T20:35:45.825Z,22.60
2018-09-23T20:38:14.611Z,22.60
2018-09-23T20:40:43.416Z,22.60
2018-09-23T20:43:12.316Z,22.60
2018-09-23T20:45:41.137Z,22.60
2018-09-23T20:48:10.170Z,22.60
2018-09-23T20:50:40.680Z,22.60
2018-09-23T20:53:09.821Z,22.60
2018-09-23T20:55:39.056Z,22.60
2018-09-23T20:58:08.396Z,22.50
2018-09-23T21:00:37.522Z,22.50
2018-09-23T21:03:06.693Z,22.50
2018-09-23T21:05:37.225Z,22.50
2018-09-23T21:08:06.581Z,22.50
2018-09-23T21:10:35.557Z,22.50
2018-09-23T21:13:04.806Z,22.40
2018-09-23T21:15:33.995Z,22.40
2018-09-23T21:18:03.075Z,22.40
2018-09-23T21:20:33.337Z,22.40
2018-09-23T21:23:02.583Z,22.40
2018-09-23T21:25:31.674Z,22.40
2018-09-23T21:28:01.032Z,22.40
2018-09-23T21:30:30.104Z,22.30
2018-09-23T21:32:59.009Z,22.20
2018-09-23T21:35:27.937Z,22.20
2018-09-23T21:37:56.918Z,22.20
2018-09-23T21:40:26.493Z,22.20
2018-09-23T21:42:55.554Z,22.10
2018-09-23T21:45:24.788Z,22.10
2018-09-23T21:47:55.416Z,22.10
2018-09-23T21:50:24.745Z,22.00
2018-09-23T21:52:53.953Z,22.00
2018-09-23T21:55:24.805Z,22.00
2018-09-23T21:57:54.030Z,21.90
2018-09-23T22:00:23.206Z,21.90
2018-09-23T22:02:52.499Z,21.90
2018-09-23T22:05:21.684Z,21.90
2018-09-23T22:07:50.778Z,21.90
2018-09-23T22:10:20.131Z,21.90
2018-09-23T22:12:49.223Z,21.90
2018-09-23T22:15:25.649Z,21.80
2018-09-23T22:17:55.383Z,21.80
2018-09-23T22:20:25.208Z,21.70
2018-09-23T22:22:56.111Z,21.70
2018-09-23T22:25:25.129Z,21.70
2018-09-23T22:27:54.811Z,21.70
2018-09-23T22:30:24.002Z,21.70
2018-09-23T22:32:53.569Z,21.70
2018-09-23T22:35:22.799Z,21.70
2018-09-23T22:37:52.941Z,21.60
2018-09-23T22:40:22.163Z,21.50
2018-09-23T22:42:51.099Z,21.50
2018-09-23T22:45:20.377Z,21.40
2018-09-23T22:47:49.458Z,21.40
2018-09-23T22:50:22.565Z,21.30
2018-09-23T22:52:51.713Z,21.20
2018-09-23T22:55:20.934Z,21.10
2018-09-23T22:57:50.302Z,21.10
2018-09-23T23:02:48.054Z,21.10
2018-09-23T23:05:17.595Z,21.00
2018-09-23T23:07:46.589Z,21.00
2018-09-23T23:10:15.800Z,21.10
2018-09-23T23:12:44.968Z,21.10
2018-09-23T23:15:13.783Z,21.00
2018-09-23T23:17:43.032Z,21.00
2018-09-23T23:20:12.168Z,21.00
2018-09-23T23:22:40.981Z,20.90
2018-09-23T23:25:09.796Z,20.90
2018-09-23T23:30:10.138Z,20.80
2018-09-23T23:32:39.423Z,20.70
2018-09-23T23:35:09.515Z,20.70
2018-09-23T23:37:38.612Z,20.70
2018-09-23T23:40:08.377Z,20.70
2018-09-23T23:42:37.483Z,20.70
2018-09-23T23:45:06.658Z,20.70
2018-09-23T23:47:35.781Z,20.80
2018-09-23T23:50:05.307Z,20.70
2018-09-23T23:52:34.310Z,20.60
2018-09-23T23:55:03.414Z,20.70
2018-09-23T23:57:33.053Z,20.60
